Time;durP1;ratioP1;P1;durP2;ratioP2;P2;SDS_P1;SDS_P2;PMS_P1;PMS_P2;Temp;Humidity;BMP_temperature;BMP_pressure;BME280_temperature;BME280_humidity;BME280_pressure;Samples;Min_cycle;Max_cycle;Signal;HPM_P1;HPM_P2
2023/12/06 00:01:44;;;;;;;93.20;48.93;;;-0.30;95.00;;;;;;4976298;28;20284;-90
2023/12/06 00:04:09;;;;;;;103.50;51.67;;;-0.20;95.10;;;;;;4976687;28;20532;-91
2023/12/06 00:06:35;;;;;;;100.23;56.17;;;-0.20;95.00;;;;;;4976349;28;20174;-90
2023/12/06 00:09:00;;;;;;;111.67;54.40;;;-0.30;95.10;;;;;;4993621;28;20319;-90
2023/12/06 00:11:26;;;;;;;116.73;61.30;;;-0.20;95.10;;;;;;4993641;28;20193;-90
2023/12/06 00:13:52;;;;;;;111.47;54.57;;;-0.20;95.10;;;;;;4976261;28;20186;-90
2023/12/06 00:16:17;;;;;;;105.43;51.53;;;-0.20;95.10;;;;;;4976261;28;20192;-90
2023/12/06 00:18:45;;;;;;;112.60;56.17;;;-0.20;95.20;;;;;;4976044;28;20222;-90
2023/12/06 00:21:10;;;;;;;108.53;58.43;;;-0.20;95.20;;;;;;4994861;28;20753;-91
2023/12/06 00:23:36;;;;;;;116.87;59.20;;;-0.20;95.20;;;;;;4997581;28;20185;-90
2023/12/06 00:26:02;;;;;;;113.80;56.00;;;-0.20;95.20;;;;;;4997530;28;20175;-90
2023/12/06 00:28:27;;;;;;;125.97;57.23;;;-0.20;95.30;;;;;;4980478;28;20745;-92
2023/12/06 00:30:53;;;;;;;124.00;61.70;;;-0.20;95.20;;;;;;4979815;28;20170;-91
2023/12/06 00:33:18;;;;;;;120.00;58.10;;;-0.20;95.30;;;;;;4979843;28;20605;-90
2023/12/06 00:35:44;;;;;;;116.20;55.43;;;-0.20;95.30;;;;;;4996193;28;20210;-90
2023/12/06 00:38:10;;;;;;;128.97;55.70;;;-0.20;95.30;;;;;;4979734;28;20198;-91
2023/12/06 00:40:35;;;;;;;126.33;56.87;;;-0.20;95.40;;;;;;4980471;28;20178;-90
2023/12/06 00:43:03;;;;;;;124.40;63.20;;;-0.20;95.30;;;;;;4979831;28;20296;-91
2023/12/06 00:45:29;;;;;;;117.20;60.33;;;-0.20;95.40;;;;;;4996253;28;20333;-92
2023/12/06 00:47:55;;;;;;;120.53;52.27;;;-0.20;95.40;;;;;;4980212;28;20670;-92
2023/12/06 00:50:21;;;;;;;127.27;55.33;;;-0.20;95.40;;;;;;4980482;28;20573;-91
2023/12/06 00:52:47;;;;;;;123.83;56.50;;;-0.10;95.50;;;;;;4997257;28;20178;-92
2023/12/06 00:55:13;;;;;;;126.17;55.10;;;-0.10;95.40;;;;;;4979522;28;20174;-89
2023/12/06 00:57:38;;;;;;;121.97;56.00;;;-0.20;95.40;;;;;;4979676;28;20185;-89
2023/12/06 01:00:06;;;;;;;113.20;51.63;;;-0.20;95.50;;;;;;4979451;28;20236;-90
2023/12/06 01:02:32;;;;;;;128.37;56.37;;;-0.10;95.50;;;;;;4996792;28;20746;-91
2023/12/06 01:04:57;;;;;;;118.10;53.80;;;-0.10;95.50;;;;;;4979336;28;20209;-91
2023/12/06 01:07:23;;;;;;;119.03;52.27;;;-0.10;95.50;;;;;;4979331;28;20171;-89
2023/12/06 01:09:48;;;;;;;120.07;56.53;;;-0.10;95.50;;;;;;4996607;28;20213;-91
2023/12/06 01:12:14;;;;;;;118.10;52.87;;;-0.10;95.50;;;;;;4979305;28;20177;-91
2023/12/06 01:14:39;;;;;;;113.67;52.77;;;-0.10;95.50;;;;;;4979285;28;20195;-90
2023/12/06 01:17:05;;;;;;;121.67;55.17;;;-0.10;95.50;;;;;;4979437;28;20183;-90
2023/12/06 01:19:30;;;;;;;116.03;52.73;;;-0.10;95.50;;;;;;4979084;28;20222;-91
2023/12/06 01:21:56;;;;;;;111.33;51.97;;;-0.10;95.50;;;;;;4995474;28;20246;-90
2023/12/06 01:24:21;;;;;;;113.00;50.17;;;-0.10;95.50;;;;;;4980004;28;20179;-90
2023/12/06 01:26:47;;;;;;;121.07;55.87;;;-0.10;95.40;;;;;;4995595;28;20184;-90
2023/12/06 01:29:12;;;;;;;114.30;50.97;;;-0.10;95.50;;;;;;4995311;28;20207;-90
2023/12/06 01:31:38;;;;;;;119.80;51.70;;;-0.10;95.50;;;;;;4979060;28;20179;-90
2023/12/06 01:34:05;;;;;;;118.93;51.03;;;-0.10;95.50;;;;;;4995938;28;20180;-90
2023/12/06 01:36:31;;;;;;;113.93;54.33;;;-0.10;95.40;;;;;;4978864;28;20240;-90
2023/12/06 01:38:56;;;;;;;105.87;51.90;;;-0.10;95.40;;;;;;4978774;28;20207;-90
2023/12/06 01:41:22;;;;;;;112.60;50.80;;;-0.10;95.40;;;;;;4978650;28;20212;-91
2023/12/06 01:43:47;;;;;;;101.73;49.33;;;0.00;95.40;;;;;;4996169;28;20201;-91
2023/12/06 01:46:13;;;;;;;101.37;51.40;;;0.00;95.40;;;;;;4978606;28;20179;-90
2023/12/06 01:48:39;;;;;;;106.47;53.90;;;0.00;95.40;;;;;;4995932;28;20191;-90
2023/12/06 01:51:06;;;;;;;92.57;52.23;;;0.00;95.40;;;;;;4996222;28;20174;-91
2023/12/06 01:53:32;;;;;;;96.70;53.27;;;0.00;95.40;;;;;;4995274;28;20628;-90
2023/12/06 01:55:58;;;;;;;96.93;54.83;;;0.00;95.40;;;;;;4995927;28;20189;-91
2023/12/06 01:58:24;;;;;;;107.37;58.23;;;0.00;95.40;;;;;;4978484;28;20213;-90
2023/12/06 02:00:51;;;;;;;104.73;56.37;;;0.00;95.40;;;;;;4995654;28;20183;-91
2023/12/06 02:03:18;;;;;;;96.93;53.40;;;0.00;95.30;;;;;;4978637;28;20666;-90
2023/12/06 02:05:44;;;;;;;105.27;58.90;;;0.00;95.30;;;;;;4995696;28;20297;-90
2023/12/06 02:08:10;;;;;;;102.27;55.93;;;0.00;95.30;;;;;;4995601;28;20268;-91
2023/12/06 02:10:35;;;;;;;100.70;55.27;;;0.00;95.30;;;;;;4995632;28;20172;-90
2023/12/06 02:13:01;;;;;;;94.60;48.87;;;0.00;95.30;;;;;;4978173;28;20190;-90
2023/12/06 02:15:27;;;;;;;98.27;50.67;;;0.00;95.30;;;;;;4995564;28;20194;-90
2023/12/06 02:17:53;;;;;;;100.60;49.80;;;0.00;95.20;;;;;;4978032;28;20211;-90
2023/12/06 02:20:19;;;;;;;98.90;56.67;;;0.00;95.20;;;;;;4995475;28;20546;-92
2023/12/06 02:22:45;;;;;;;98.13;54.23;;;0.00;95.20;;;;;;4995678;28;20207;-91
2023/12/06 02:25:12;;;;;;;113.50;57.47;;;0.00;95.20;;;;;;4977925;28;20715;-91
2023/12/06 02:27:41;;;;;;;103.67;55.50;;;0.00;95.20;;;;;;4995475;28;20228;-89
2023/12/06 02:30:08;;;;;;;100.43;55.67;;;0.00;95.30;;;;;;4977833;28;20272;-91
2023/12/06 02:32:33;;;;;;;104.13;55.90;;;0.00;95.30;;;;;;4995476;28;20188;-91
2023/12/06 02:35:02;;;;;;;100.83;55.87;;;0.00;95.30;;;;;;4977685;28;20187;-92
2023/12/06 02:37:27;;;;;;;101.37;54.67;;;0.00;95.30;;;;;;4978526;28;20238;-91
2023/12/06 02:39:55;;;;;;;106.03;56.57;;;0.00;95.30;;;;;;4994995;28;20604;-91
2023/12/06 02:42:21;;;;;;;100.73;52.93;;;0.00;95.30;;;;;;4977569;28;20206;-89
2023/12/06 02:44:46;;;;;;;98.33;53.03;;;0.00;95.30;;;;;;4977279;28;20179;-91
2023/12/06 02:47:12;;;;;;;106.20;53.50;;;0.00;95.30;;;;;;4977628;28;20177;-91
2023/12/06 02:49:38;;;;;;;106.00;56.33;;;0.00;95.30;;;;;;4994763;28;20273;-91
2023/12/06 02:52:03;;;;;;;110.33;58.93;;;0.00;95.30;;;;;;4993454;28;20280;-90
2023/12/06 02:54:29;;;;;;;110.00;49.60;;;0.00;95.30;;;;;;4977471;28;20191;-90
2023/12/06 02:56:54;;;;;;;107.93;50.80;;;0.00;95.30;;;;;;4977749;28;20183;-90
2023/12/06 02:59:20;;;;;;;107.33;53.50;;;0.10;95.30;;;;;;4977215;28;20689;-90
2023/12/06 03:01:47;;;;;;;112.37;56.40;;;0.00;95.40;;;;;;4994482;28;20206;-90
2023/12/06 03:04:13;;;;;;;122.50;57.23;;;0.10;95.40;;;;;;4977308;28;20184;-90
2023/12/06 03:06:38;;;;;;;107.73;50.40;;;0.00;95.40;;;;;;4977518;28;20184;-90
2023/12/06 03:09:05;;;;;;;104.87;51.97;;;0.10;95.40;;;;;;4977058;28;20248;-90
2023/12/06 03:11:30;;;;;;;112.60;54.33;;;0.10;95.40;;;;;;4993285;28;20209;-90
2023/12/06 03:13:56;;;;;;;114.53;52.30;;;0.00;95.40;;;;;;4977050;28;20279;-90
2023/12/06 03:16:21;;;;;;;120.47;54.30;;;0.10;95.40;;;;;;4977042;28;20243;-90
2023/12/06 03:18:47;;;;;;;108.30;52.33;;;0.10;95.40;;;;;;4994169;28;20311;-90
2023/12/06 03:21:12;;;;;;;110.40;51.83;;;0.10;95.40;;;;;;4977088;28;20702;-90
2023/12/06 03:23:38;;;;;;;101.20;49.83;;;0.10;95.40;;;;;;4976976;28;20176;-90
2023/12/06 03:26:06;;;;;;;110.97;51.97;;;0.10;95.50;;;;;;4976967;28;20657;-90
2023/12/06 03:28:31;;;;;;;117.43;62.20;;;0.10;95.40;;;;;;4976836;28;20203;-90
2023/12/06 03:30:57;;;;;;;116.83;59.43;;;0.10;95.40;;;;;;4976855;28;20174;-91
2023/12/06 03:33:22;;;;;;;122.57;59.93;;;0.10;95.40;;;;;;4992901;28;20173;-90
2023/12/06 03:35:48;;;;;;;120.33;61.13;;;0.10;95.40;;;;;;4976796;28;20223;-91
2023/12/06 03:38:13;;;;;;;109.33;56.40;;;0.10;95.50;;;;;;4976629;28;20192;-90
2023/12/06 03:40:39;;;;;;;116.30;59.97;;;0.10;95.50;;;;;;4976677;28;20176;-90
2023/12/06 03:43:05;;;;;;;125.17;62.87;;;0.10;95.40;;;;;;4976429;28;20201;-90
2023/12/06 03:45:31;;;;;;;119.83;58.60;;;0.10;95.40;;;;;;4992770;28;20177;-91
2023/12/06 03:47:57;;;;;;;105.30;54.33;;;0.10;95.40;;;;;;4992636;28;20205;-90
2023/12/06 03:50:22;;;;;;;115.30;54.07;;;0.20;95.50;;;;;;4976435;28;20210;-90
2023/12/06 03:52:48;;;;;;;125.17;55.70;;;0.10;95.40;;;;;;4994190;28;20249;-90
2023/12/06 03:55:14;;;;;;;122.23;60.23;;;0.10;95.40;;;;;;4975908;28;20683;-90
2023/12/06 03:57:39;;;;;;;127.27;62.00;;;0.20;95.50;;;;;;4993513;28;20181;-90
2023/12/06 04:00:06;;;;;;;128.70;62.60;;;0.10;95.40;;;;;;4977439;28;20596;-90
2023/12/06 04:02:31;;;;;;;129.20;61.67;;;0.20;95.50;;;;;;4993566;28;20211;-90
2023/12/06 04:04:57;;;;;;;118.60;54.77;;;0.10;95.40;;;;;;4976521;28;20657;-90
2023/12/06 04:07:22;;;;;;;119.13;56.37;;;0.10;95.40;;;;;;4976202;28;20192;-90
2023/12/06 04:09:48;;;;;;;119.13;59.07;;;0.20;95.40;;;;;;4976216;28;20585;-90
2023/12/06 04:12:14;;;;;;;126.93;62.13;;;0.10;95.40;;;;;;4976180;28;20218;-90
2023/12/06 04:14:39;;;;;;;121.97;63.93;;;0.10;95.40;;;;;;4976189;28;20215;-90
2023/12/06 04:17:05;;;;;;;123.53;63.00;;;0.20;95.40;;;;;;4993598;28;20181;-90
2023/12/06 04:19:31;;;;;;;120.90;64.40;;;0.20;95.40;;;;;;4976095;28;20219;-90
2023/12/06 04:21:56;;;;;;;125.10;58.07;;;0.20;95.40;;;;;;4976450;28;20213;-91
2023/12/06 04:24:22;;;;;;;119.90;58.67;;;0.10;95.40;;;;;;4993475;28;20524;-90
2023/12/06 04:26:47;;;;;;;109.63;55.27;;;0.20;95.30;;;;;;4976039;28;20316;-90
2023/12/06 04:29:13;;;;;;;124.07;62.13;;;0.20;95.40;;;;;;4976085;28;20291;-89
2023/12/06 04:31:38;;;;;;;121.53;63.00;;;0.20;95.30;;;;;;4975992;28;20184;-90
2023/12/06 04:34:04;;;;;;;119.80;63.50;;;0.20;95.30;;;;;;4993318;28;20178;-90
2023/12/06 04:36:29;;;;;;;129.67;64.50;;;0.20;95.30;;;;;;4976018;28;20177;-90
2023/12/06 04:38:55;;;;;;;119.00;60.83;;;0.20;95.30;;;;;;4975920;28;20204;-90
2023/12/06 04:41:20;;;;;;;122.63;60.87;;;0.20;95.30;;;;;;4993301;28;20204;-90
2023/12/06 04:43:46;;;;;;;120.50;60.87;;;0.20;95.30;;;;;;4975937;28;20183;-90
2023/12/06 04:46:11;;;;;;;121.13;62.27;;;0.20;95.30;;;;;;4992116;28;20183;-90
2023/12/06 04:48:37;;;;;;;112.67;61.10;;;0.20;95.30;;;;;;4975770;28;20210;-90
2023/12/06 04:51:02;;;;;;;120.20;61.20;;;0.20;95.30;;;;;;4975807;28;20187;-90
2023/12/06 04:53:28;;;;;;;121.93;60.47;;;0.20;95.30;;;;;;4993236;28;20264;-91
2023/12/06 04:55:53;;;;;;;121.10;59.03;;;0.20;95.30;;;;;;4993105;28;20209;-90
2023/12/06 04:58:19;;;;;;;133.53;64.50;;;0.20;95.20;;;;;;4975564;28;20199;-90
2023/12/06 05:00:44;;;;;;;133.87;65.60;;;0.20;95.30;;;;;;4975757;28;20638;-90
2023/12/06 05:03:10;;;;;;;124.30;62.07;;;0.20;95.20;;;;;;4975454;28;20217;-91
2023/12/06 05:05:36;;;;;;;134.77;58.57;;;0.10;95.20;;;;;;4976040;28;20170;-88
2023/12/06 05:08:01;;;;;;;127.10;60.70;;;0.20;95.30;;;;;;4978268;28;20229;-90
2023/12/06 05:10:27;;;;;;;123.97;59.90;;;0.20;95.30;;;;;;4979345;28;20656;-90
2023/12/06 05:12:52;;;;;;;131.13;62.80;;;0.20;95.20;;;;;;4996672;28;20185;-90
2023/12/06 05:15:18;;;;;;;125.10;58.97;;;0.20;95.30;;;;;;4996612;28;20177;-90
2023/12/06 05:17:43;;;;;;;131.93;59.00;;;0.20;95.30;;;;;;4996383;28;20615;-91
2023/12/06 05:20:10;;;;;;;122.73;59.47;;;0.20;95.30;;;;;;4979160;28;20176;-90
2023/12/06 05:22:36;;;;;;;135.20;60.03;;;0.20;95.30;;;;;;4979626;28;20264;-90
2023/12/06 05:25:03;;;;;;;132.40;60.57;;;0.10;95.20;;;;;;4979008;28;20177;-90
2023/12/06 05:27:29;;;;;;;126.07;62.07;;;0.20;95.30;;;;;;4979129;28;20644;-90
2023/12/06 05:29:54;;;;;;;126.40;59.57;;;0.20;95.20;;;;;;4996291;28;20192;-90
2023/12/06 05:32:20;;;;;;;123.07;58.63;;;0.20;95.30;;;;;;4996348;28;20177;-92
2023/12/06 05:34:45;;;;;;;122.47;57.17;;;0.20;95.30;;;;;;4978903;28;20183;-90
2023/12/06 05:37:11;;;;;;;132.10;66.23;;;0.20;95.30;;;;;;4978785;28;20666;-90
2023/12/06 05:39:37;;;;;;;129.80;65.43;;;0.20;95.30;;;;;;4996138;28;20205;-90
2023/12/06 05:42:03;;;;;;;128.50;63.77;;;0.20;95.30;;;;;;4978609;28;20401;-90
2023/12/06 05:44:30;;;;;;;130.70;69.03;;;0.20;95.30;;;;;;4994886;28;20184;-90
2023/12/06 05:46:55;;;;;;;130.63;67.23;;;0.20;95.20;;;;;;4978608;28;20177;-91
2023/12/06 05:49:21;;;;;;;130.53;67.13;;;0.30;95.20;;;;;;4978450;28;20703;-91
2023/12/06 05:51:46;;;;;;;125.50;66.00;;;0.20;95.20;;;;;;4978554;28;20252;-91
2023/12/06 05:54:12;;;;;;;132.30;65.73;;;0.20;95.20;;;;;;4994717;28;20180;-91
2023/12/06 05:56:38;;;;;;;137.20;60.37;;;0.30;95.20;;;;;;4978407;28;20193;-91
2023/12/06 05:59:03;;;;;;;138.40;61.13;;;0.20;95.20;;;;;;4978269;28;20209;-89
2023/12/06 06:01:29;;;;;;;141.70;62.83;;;0.20;95.20;;;;;;4978257;28;20207;-91
2023/12/06 06:03:54;;;;;;;139.73;64.77;;;0.20;95.20;;;;;;4995774;28;20201;-91
2023/12/06 06:06:20;;;;;;;134.80;63.97;;;0.20;95.20;;;;;;4995561;28;20173;-91
2023/12/06 06:08:45;;;;;;;133.57;60.23;;;0.20;95.20;;;;;;4978712;28;20191;-90
2023/12/06 06:11:11;;;;;;;126.37;60.50;;;0.20;95.20;;;;;;4978247;28;20209;-91
2023/12/06 06:13:36;;;;;;;138.80;70.00;;;0.20;95.20;;;;;;4995487;28;20174;-90
2023/12/06 06:16:02;;;;;;;134.43;65.53;;;0.30;95.20;;;;;;4995431;28;20188;-91
2023/12/06 06:18:28;;;;;;;129.73;67.40;;;0.20;95.20;;;;;;4977323;28;20250;-90
2023/12/06 06:20:54;;;;;;;136.83;62.93;;;0.30;95.20;;;;;;4979133;28;20207;-90
2023/12/06 06:23:19;;;;;;;131.20;61.47;;;0.30;95.20;;;;;;4978202;28;20180;-91
2023/12/06 06:25:45;;;;;;;145.03;68.67;;;0.30;95.20;;;;;;4978307;28;20174;-91
2023/12/06 06:28:11;;;;;;;133.97;68.20;;;0.30;95.20;;;;;;4995242;28;20773;-91
2023/12/06 06:30:36;;;;;;;146.93;70.33;;;0.20;95.20;;;;;;4978147;28;20233;-91
2023/12/06 06:33:02;;;;;;;137.50;62.87;;;0.20;95.20;;;;;;4977879;28;20267;-90
2023/12/06 06:35:27;;;;;;;128.17;61.13;;;0.30;95.20;;;;;;4994003;28;20232;-90
2023/12/06 06:37:53;;;;;;;141.63;69.07;;;0.30;95.20;;;;;;4977675;28;20197;-90
2023/12/06 06:40:22;;;;;;;144.53;68.87;;;0.30;95.20;;;;;;4977934;28;20214;-90
2023/12/06 06:42:47;;;;;;;140.80;67.57;;;0.30;95.20;;;;;;4978334;28;20210;-90
2023/12/06 06:45:13;;;;;;;130.90;60.33;;;0.30;95.20;;;;;;4977674;28;20189;-90
2023/12/06 06:47:38;;;;;;;135.97;57.97;;;0.30;95.20;;;;;;4993655;28;20179;-89
2023/12/06 06:50:04;;;;;;;138.00;66.63;;;0.30;95.20;;;;;;4977535;28;20267;-90
2023/12/06 06:52:32;;;;;;;148.77;68.97;;;0.30;95.20;;;;;;4977709;28;20221;-90
2023/12/06 06:54:57;;;;;;;155.80;69.37;;;0.30;95.20;;;;;;4977511;28;20184;-90
2023/12/06 06:57:23;;;;;;;142.17;63.67;;;0.20;95.20;;;;;;4977428;28;20182;-91
2023/12/06 06:59:48;;;;;;;154.47;66.73;;;0.20;95.20;;;;;;4993770;28;20238;-90
2023/12/06 07:02:14;;;;;;;155.10;70.40;;;0.20;95.20;;;;;;4994685;28;20212;-90
2023/12/06 07:04:41;;;;;;;152.67;67.67;;;0.30;95.20;;;;;;4995064;28;20176;-90
2023/12/06 07:07:06;;;;;;;146.70;70.67;;;0.20;95.20;;;;;;4977201;28;20209;-91
2023/12/06 07:09:32;;;;;;;149.73;64.10;;;0.20;95.20;;;;;;4977464;28;20255;-91
2023/12/06 07:11:57;;;;;;;164.00;68.93;;;0.30;95.20;;;;;;4977730;28;20182;-90
2023/12/06 07:14:23;;;;;;;154.07;74.77;;;0.30;95.30;;;;;;4977005;28;20566;-90
2023/12/06 07:16:48;;;;;;;152.07;70.53;;;0.30;95.30;;;;;;4977094;28;20668;-90
2023/12/06 07:19:14;;;;;;;149.90;72.73;;;0.20;95.20;;;;;;4993305;28;20220;-89
2023/12/06 07:21:39;;;;;;;144.80;62.87;;;0.30;95.30;;;;;;4995160;28;20298;-90
2023/12/06 07:24:06;;;;;;;152.43;64.03;;;0.30;95.20;;;;;;4977153;28;20173;-90
2023/12/06 07:26:32;;;;;;;155.90;67.20;;;0.30;95.20;;;;;;4994757;28;20170;-91
2023/12/06 07:28:57;;;;;;;151.77;66.30;;;0.30;95.20;;;;;;4977026;28;20208;-90
2023/12/06 07:31:23;;;;;;;152.93;68.73;;;0.30;95.20;;;;;;4993509;28;20272;-90
2023/12/06 07:33:50;;;;;;;144.13;65.40;;;0.30;95.20;;;;;;4976968;28;20180;-90
2023/12/06 07:36:16;;;;;;;172.00;65.80;;;0.30;95.30;;;;;;4994525;28;20176;-91
2023/12/06 07:38:42;;;;;;;159.03;67.83;;;0.30;95.20;;;;;;4977903;28;20707;-89
2023/12/06 07:41:07;;;;;;;157.33;68.70;;;0.30;95.30;;;;;;4976950;28;20202;-93
2023/12/06 07:43:33;;;;;;;170.13;72.47;;;0.30;95.30;;;;;;4977525;28;20182;-91
2023/12/06 07:45:58;;;;;;;165.50;72.57;;;0.30;95.30;;;;;;4976622;28;20546;-91
2023/12/06 07:48:25;;;;;;;174.47;76.33;;;0.30;95.30;;;;;;4992883;28;20212;-91
2023/12/06 07:50:51;;;;;;;168.03;71.40;;;0.30;95.30;;;;;;4976796;28;20175;-90
2023/12/06 07:53:17;;;;;;;171.23;72.47;;;0.30;95.30;;;;;;4976728;28;20572;-90
2023/12/06 07:55:42;;;;;;;177.27;72.13;;;0.30;95.30;;;;;;4976639;28;20185;-90
2023/12/06 07:58:08;;;;;;;180.03;77.10;;;0.30;95.30;;;;;;4992678;28;20208;-91
2023/12/06 08:00:34;;;;;;;178.87;75.63;;;0.30;95.30;;;;;;4976692;28;20177;-90
2023/12/06 08:02:59;;;;;;;204.10;72.63;;;0.30;95.30;;;;;;4994289;28;20305;-90
2023/12/06 08:05:25;;;;;;;201.27;74.53;;;0.30;95.30;;;;;;4976462;28;20227;-90
2023/12/06 08:07:51;;;;;;;186.33;69.50;;;0.30;95.30;;;;;;4976288;28;20264;-90
2023/12/06 08:10:22;;;;;;;181.87;73.63;;;0.40;95.40;;;;;;4993775;28;20184;-90
2023/12/06 08:12:49;;;;;;;188.37;76.77;;;0.30;95.40;;;;;;4976380;28;20261;-90
2023/12/06 08:15:14;;;;;;;195.40;71.37;;;0.30;95.40;;;;;;4993743;28;20199;-90
2023/12/06 08:17:41;;;;;;;201.60;74.17;;;0.30;95.40;;;;;;4993609;28;20195;-90
2023/12/06 08:20:08;;;;;;;205.27;76.90;;;0.30;95.40;;;;;;4976288;28;20199;-90
2023/12/06 08:22:33;;;;;;;189.37;77.17;;;0.30;95.40;;;;;;4976300;28;20229;-90
2023/12/06 08:24:59;;;;;;;196.87;76.90;;;0.40;95.40;;;;;;4976357;28;20228;-90
2023/12/06 08:27:29;;;;;;;205.20;71.83;;;0.40;95.50;;;;;;4977104;28;20182;-90
2023/12/06 08:29:55;;;;;;;189.63;68.07;;;0.40;95.50;;;;;;4976128;28;20249;-90
2023/12/06 08:32:21;;;;;;;186.90;76.00;;;0.40;95.50;;;;;;4993502;28;20262;-89
2023/12/06 08:34:48;;;;;;;166.90;71.17;;;0.40;95.50;;;;;;4993939;28;20268;-90
2023/12/06 08:37:13;;;;;;;179.47;74.40;;;0.40;95.50;;;;;;4976324;28;20632;-90
2023/12/06 08:39:39;;;;;;;197.13;70.90;;;0.30;95.50;;;;;;4992761;28;20246;-90
2023/12/06 08:42:05;;;;;;;185.43;68.47;;;0.30;95.50;;;;;;4994483;28;20212;-90
2023/12/06 08:44:30;;;;;;;180.00;76.37;;;0.40;95.60;;;;;;4979979;28;20608;-90
2023/12/06 08:46:57;;;;;;;186.27;73.43;;;0.40;95.60;;;;;;4996008;28;20185;-90
2023/12/06 08:49:22;;;;;;;189.40;73.50;;;0.40;95.60;;;;;;4979740;28;20205;-90
2023/12/06 08:51:48;;;;;;;171.13;68.07;;;0.40;95.60;;;;;;4997407;28;20184;-90
2023/12/06 08:54:13;;;;;;;171.67;68.67;;;0.40;95.60;;;;;;4979772;28;20181;-89
2023/12/06 08:56:39;;;;;;;167.57;72.33;;;0.50;95.60;;;;;;4979570;28;20184;-89
2023/12/06 08:59:04;;;;;;;172.60;75.10;;;0.40;95.60;;;;;;4979605;28;20201;-89
2023/12/06 09:01:30;;;;;;;180.70;76.17;;;0.50;95.60;;;;;;4996948;28;20697;-89
2023/12/06 09:03:55;;;;;;;188.93;70.27;;;0.40;95.60;;;;;;4979634;28;20205;-88
2023/12/06 09:06:21;;;;;;;182.00;69.00;;;0.40;95.70;;;;;;4995738;28;20180;-89
2023/12/06 09:08:46;;;;;;;190.33;74.90;;;0.50;95.70;;;;;;4979315;28;20300;-89
2023/12/06 09:11:18;;;;;;;188.27;74.00;;;0.50;95.70;;;;;;4979423;28;20259;-89
2023/12/06 09:13:44;;;;;;;205.80;76.90;;;0.50;95.70;;;;;;4996797;28;20155;-89
2023/12/06 09:16:09;;;;;;;183.73;71.87;;;0.40;95.70;;;;;;4979216;28;20265;-89
2023/12/06 09:18:35;;;;;;;196.40;69.00;;;0.50;95.70;;;;;;4979023;28;20581;-89
2023/12/06 09:21:01;;;;;;;191.93;73.33;;;0.50;95.70;;;;;;4979290;28;20185;-90
2023/12/06 09:23:27;;;;;;;206.80;76.23;;;0.50;95.70;;;;;;4979159;28;20202;-90
2023/12/06 09:25:52;;;;;;;200.53;75.93;;;0.50;95.70;;;;;;4979063;28;20187;-89
2023/12/06 09:28:18;;;;;;;197.50;74.10;;;0.50;95.70;;;;;;4995276;28;20197;-88
2023/12/06 09:30:43;;;;;;;190.33;69.90;;;0.40;95.70;;;;;;4979072;28;20178;-89
2023/12/06 09:33:09;;;;;;;202.00;73.50;;;0.50;95.70;;;;;;4996421;28;20191;-89
2023/12/06 09:35:35;;;;;;;187.10;75.17;;;0.40;95.70;;;;;;4979091;28;20181;-88
2023/12/06 09:38:00;;;;;;;208.37;76.80;;;0.50;95.70;;;;;;4996215;28;20266;-88
2023/12/06 09:40:26;;;;;;;195.00;69.23;;;0.50;95.70;;;;;;4978961;28;20207;-87
2023/12/06 09:42:56;;;;;;;215.30;75.50;;;0.50;95.80;;;;;;4996334;28;20236;-88
2023/12/06 09:45:24;;;;;;;228.03;77.80;;;0.50;95.70;;;;;;4996522;28;20166;-89
2023/12/06 09:47:51;;;;;;;206.33;73.57;;;0.50;95.70;;;;;;4996076;28;20540;-88
2023/12/06 09:50:17;;;;;;;223.63;75.83;;;0.50;95.80;;;;;;4996075;28;20182;-88
2023/12/06 09:52:43;;;;;;;221.27;73.23;;;0.50;95.80;;;;;;4995988;28;20260;-89
2023/12/06 09:55:09;;;;;;;232.43;77.13;;;0.50;95.80;;;;;;4995277;28;20671;-88
2023/12/06 09:57:35;;;;;;;213.27;74.63;;;0.50;95.80;;;;;;4995978;28;20186;-89
2023/12/06 10:00:02;;;;;;;214.73;72.90;;;0.50;95.80;;;;;;4995792;28;20698;-88
2023/12/06 10:02:27;;;;;;;225.40;78.03;;;0.50;95.80;;;;;;4995575;28;20196;-88
2023/12/06 10:04:53;;;;;;;238.23;84.70;;;0.50;95.80;;;;;;4978353;28;20233;-88
2023/12/06 10:07:19;;;;;;;238.87;81.00;;;0.50;95.80;;;;;;4978250;28;20179;-89
2023/12/06 10:09:50;;;;;;;235.20;84.77;;;0.50;95.80;;;;;;4995765;28;20204;-89
2023/12/06 10:12:15;;;;;;;252.77;83.27;;;0.50;95.80;;;;;;4994672;28;20265;-88
2023/12/06 10:14:40;;;;;;;244.27;82.00;;;0.50;95.80;;;;;;4978406;28;20721;-89
2023/12/06 10:17:09;;;;;;;265.03;83.83;;;0.50;95.80;;;;;;4995683;28;20181;-89
2023/12/06 10:19:34;;;;;;;242.43;81.90;;;0.50;95.90;;;;;;4979403;28;20225;-87
2023/12/06 10:22:00;;;;;;;247.27;78.77;;;0.50;95.90;;;;;;4994416;28;20207;-88
2023/12/06 10:24:28;;;;;;;277.07;79.60;;;0.50;95.90;;;;;;4978139;28;20184;-87
2023/12/06 10:27:05;;;;;;;269.63;81.53;;;0.50;95.90;;;;;;4995388;28;20648;-87
2023/12/06 10:29:31;;;;;;;278.03;80.10;;;0.50;95.90;;;;;;4977969;28;20197;-88
2023/12/06 10:31:58;;;;;;;289.93;81.03;;;0.50;95.90;;;;;;4994143;28;20186;-88
2023/12/06 10:34:26;;;;;;;290.97;82.27;;;0.50;95.90;;;;;;4995473;28;20264;-88
2023/12/06 10:36:55;;;;;;;295.40;82.73;;;0.50;95.90;;;;;;4977798;28;20182;-88
2023/12/06 10:39:21;;;;;;;282.93;81.20;;;0.50;95.90;;;;;;4995425;28;20189;-88
2023/12/06 10:41:49;;;;;;;305.50;79.13;;;0.50;95.90;;;;;;4993893;28;20208;-89
2023/12/06 10:44:15;;;;;;;282.10;75.63;;;0.50;95.90;;;;;;4977833;28;20217;-87
2023/12/06 10:46:43;;;;;;;297.30;82.47;;;0.50;95.90;;;;;;4978414;28;20209;-87
2023/12/06 10:49:10;;;;;;;271.87;77.80;;;0.50;95.90;;;;;;4978271;28;20218;-88
2023/12/06 10:51:37;;;;;;;269.83;79.17;;;0.50;95.90;;;;;;4996055;28;20185;-87
2023/12/06 10:54:04;;;;;;;252.50;74.20;;;0.50;95.90;;;;;;4995135;28;20189;-87
2023/12/06 10:56:31;;;;;;;264.30;76.60;;;0.50;96.00;;;;;;4977991;28;20678;-87
2023/12/06 10:58:59;;;;;;;250.67;75.20;;;0.50;95.90;;;;;;4977837;28;20339;-88
2023/12/06 11:01:25;;;;;;;263.50;78.73;;;0.60;96.00;;;;;;4994288;28;20286;-87
2023/12/06 11:03:52;;;;;;;290.17;78.60;;;0.50;95.90;;;;;;4995453;28;20172;-88
2023/12/06 11:07:06;;;;;;;275.73;77.77;;;0.50;96.00;;;;;;4995198;28;20185;-87
2023/12/06 11:09:38;;;;;;;253.50;77.43;;;0.50;96.00;;;;;;4933566;28;20203;-87
2023/12/06 11:12:16;;;;;;;255.93;73.13;;;0.50;96.00;;;;;;4977895;28;20182;-87
2023/12/06 11:14:55;;;;;;;259.40;79.00;;;0.50;96.00;;;;;;4977199;28;20268;-87
2023/12/06 11:17:44;;;;;;;261.23;81.83;;;0.60;96.00;;;;;;4977303;28;20247;-87
2023/12/06 11:20:10;;;;;;;272.07;81.47;;;0.50;96.00;;;;;;4995758;28;20172;-87
2023/12/06 11:22:37;;;;;;;245.20;78.87;;;0.60;96.00;;;;;;4993819;28;20214;-88
2023/12/06 11:25:03;;;;;;;268.30;77.53;;;0.60;96.00;;;;;;4995073;28;20174;-89
2023/12/06 11:27:29;;;;;;;251.83;81.83;;;0.50;96.00;;;;;;4976896;28;20241;-89
2023/12/06 11:29:55;;;;;;;235.00;79.53;;;0.50;96.00;;;;;;4994430;28;20668;-88
2023/12/06 11:32:21;;;;;;;232.17;79.47;;;0.60;96.00;;;;;;4976993;28;20214;-88
2023/12/06 11:34:55;;;;;;;203.70;68.23;;;0.60;96.00;;;;;;4969028;28;20201;-87
2023/12/06 11:37:22;;;;;;;207.23;70.77;;;0.50;96.00;;;;;;4977039;28;20263;-88
2023/12/06 11:40:07;;;;;;;216.77;77.77;;;0.60;96.00;;;;;;4994056;28;20626;-88
2023/12/06 11:42:37;;;;;;;211.10;78.87;;;0.50;96.00;;;;;;4977024;28;20209;-87
2023/12/06 11:45:26;;;;;;;216.57;78.33;;;0.60;96.00;;;;;;4976872;28;20206;-88
2023/12/06 11:47:52;;;;;;;218.50;75.17;;;0.50;96.00;;;;;;4983405;28;20268;-87
2023/12/06 11:50:19;;;;;;;227.63;74.70;;;0.60;96.00;;;;;;4994771;28;20237;-87
2023/12/06 11:52:48;;;;;;;220.27;81.27;;;0.60;96.00;;;;;;4993177;28;20189;-88
2023/12/06 11:55:14;;;;;;;236.10;83.77;;;0.50;96.10;;;;;;4978000;28;20192;-88
2023/12/06 11:58:19;;;;;;;211.83;78.00;;;0.60;96.10;;;;;;4993716;28;20183;-87
2023/12/06 12:00:48;;;;;;;207.70;76.83;;;0.60;96.10;;;;;;4899761;29;20223;-87
2023/12/06 12:03:15;;;;;;;227.30;78.17;;;0.60;96.10;;;;;;4898589;29;20275;-86
2023/12/06 12:05:44;;;;;;;214.97;81.80;;;0.60;96.10;;;;;;4947804;28;20246;-86
2023/12/06 12:08:11;;;;;;;221.57;79.80;;;0.60;96.10;;;;;;4996167;28;20204;-88
2023/12/06 12:10:37;;;;;;;208.83;76.40;;;0.50;96.10;;;;;;4995367;28;20173;-87
2023/12/06 12:13:03;;;;;;;206.93;72.60;;;0.60;96.10;;;;;;4977909;28;20239;-87
2023/12/06 12:15:29;;;;;;;217.77;72.20;;;0.60;96.10;;;;;;4994846;28;20173;-87
2023/12/06 12:17:56;;;;;;;202.07;75.97;;;0.60;96.10;;;;;;4976844;28;20540;-87
2023/12/06 12:20:21;;;;;;;216.60;79.20;;;0.60;96.10;;;;;;4995486;28;20229;-87
2023/12/06 12:22:52;;;;;;;220.30;76.80;;;0.60;96.10;;;;;;4995782;28;20210;-88